Eagan, Minnesota
Current Conditions -  °F | °C
As of 8:22 AM on Wednesday 28 Jan 2015 (Local Time) from KMSP Reporting Station
Haze Haze  
Wind Chill: 17°   Ceiling: 800
Heat Index: 28°   Visibility: 5mi
Dew Point: 24°   Wind: 13mph
Humidity: 85%   Direction: 140°SE
Pressure: 29.99"   Gusts: NA
Location:  44.82°N, 93.17°W
Report Text: KMSP 281422Z 14011KT 5SM BR OVC008 M02/M04 A2999 RMK AO2 T10221044
Loading
Personal Weather Stations






























Interactive Weather Map New forecast layout! Learn more

10-Day Weather Forecast

Advertisements
Track Severe Weather on mobile